Time;durP1;ratioP1;P1;durP2;ratioP2;P2;SDS_P1;SDS_P2;PMS_P1;PMS_P2;Temp;Humidity;BMP_temperature;BMP_pressure;BME280_temperature;BME280_humidity;BME280_pressure;Samples;Min_cycle;Max_cycle;Signal;HPM_P1;HPM_P2
2022/07/22 00:00:44;;;;;;;5.00;3.60;;;;;;;-143.84;43.25;44972.91;5110646;28;20444;-68
2022/07/22 00:03:12;;;;;;;6.00;2.90;;;;;;;-143.84;42.85;44991.94;5109486;28;20898;-68
2022/07/22 00:05:39;;;;;;;5.60;3.10;;;;;;;-143.84;43.25;44971.00;5110658;28;20447;-68
2022/07/22 00:08:06;;;;;;;4.70;2.80;;;;;;;-143.84;43.36;45010.97;5110330;28;20447;-68
2022/07/22 00:10:33;;;;;;;3.60;3.30;;;;;;;-143.84;42.59;44999.56;5110637;28;20438;-68
2022/07/22 00:13:00;;;;;;;6.90;3.30;;;;;;;-143.84;42.52;44982.41;5109919;28;20474;-68
2022/07/22 00:15:27;;;;;;;3.27;3.00;;;;;;;-143.84;41.82;44999.56;5109868;28;20492;-68
2022/07/22 00:17:56;;;;;;;3.40;3.10;;;;;;;-143.84;41.59;44999.56;5110374;28;20488;-68
2022/07/22 00:20:23;;;;;;;4.03;3.00;;;;;;;-143.84;41.40;45005.28;5110313;28;20856;-68
2022/07/22 00:22:50;;;;;;;7.17;3.00;;;;;;;-143.84;40.99;44993.84;5110266;28;20484;-68
2022/07/22 00:25:17;;;;;;;4.30;3.30;;;;;;;-143.84;40.71;45012.88;5110166;28;20496;-68
2022/07/22 00:27:44;;;;;;;6.27;2.20;;;;;;;-143.84;40.71;44991.94;5110169;28;20855;-68
2022/07/22 00:30:13;;;;;;;12.00;3.13;;;;;;;-143.84;41.30;44978.63;5089634;28;20466;-68
2022/07/22 00:32:40;;;;;;;8.93;3.10;;;;;;;-143.84;41.56;45009.09;5089798;28;20500;-68
2022/07/22 00:35:10;;;;;;;3.70;3.40;;;;;;;-143.84;42.32;44993.84;5089605;28;20778;-68
2022/07/22 00:37:37;;;;;;;6.97;3.33;;;;;;;-143.84;42.49;44988.13;5090001;28;20479;-68
2022/07/22 00:40:05;;;;;;;6.57;2.80;;;;;;;-143.84;42.73;44978.63;5089899;28;20448;-68
2022/07/22 00:42:33;;;;;;;4.70;2.70;;;;;;;-143.84;43.05;44999.56;5089687;28;20470;-68
2022/07/22 00:45:01;;;;;;;5.27;3.33;;;;;;;-143.84;43.39;44990.03;5089630;28;20536;-68
2022/07/22 00:47:28;;;;;;;4.37;3.40;;;;;;;-143.84;45.10;45035.75;5089070;28;20485;-68
2022/07/22 00:49:55;;;;;;;8.33;3.87;;;;;;;-143.84;47.03;44995.75;5089283;28;20436;-68
2022/07/22 00:52:24;;;;;;;9.80;4.00;;;;;;;-143.84;51.43;45003.38;5089096;28;20985;-68
2022/07/22 00:54:51;;;;;;;9.80;3.77;;;;;;;-143.84;55.83;44991.94;5089727;28;20501;-68
2022/07/22 00:57:19;;;;;;;15.60;4.70;;;;;;;-143.84;57.93;45003.38;5089320;28;20443;-68
2022/07/22 00:59:46;;;;;;;6.73;4.13;;;;;;;-143.84;58.58;44995.75;5089263;28;20444;-68
2022/07/22 01:02:13;;;;;;;9.80;4.40;;;;;;;-143.84;58.83;44999.56;5088976;28;20435;-68
2022/07/22 01:04:41;;;;;;;6.50;4.20;;;;;;;-143.84;59.41;44988.13;5089364;28;20512;-68
2022/07/22 01:07:08;;;;;;;4.20;3.80;;;;;;;-143.84;60.52;44997.66;5089342;28;20436;-68
2022/07/22 01:09:37;;;;;;;14.03;3.93;;;;;;;-143.84;61.77;44980.53;5089177;28;20954;-68
2022/07/22 01:12:05;;;;;;;7.60;3.87;;;;;;;-143.84;62.46;45016.69;5087795;28;20479;-68
2022/07/22 01:14:32;;;;;;;7.53;3.90;;;;;;;-143.84;61.85;44982.41;5088435;28;20447;-68
2022/07/22 01:16:59;;;;;;;11.70;3.80;;;;;;;-143.84;60.82;44988.13;5088667;28;20428;-68
2022/07/22 01:19:26;;;;;;;16.30;4.33;;;;;;;-143.84;57.56;44984.31;5088758;28;20443;-68
2022/07/22 01:21:55;;;;;;;9.33;3.60;;;;;;;-143.84;55.85;44997.66;5088716;28;20436;-68
2022/07/22 01:24:22;;;;;;;4.80;3.33;;;;;;;-143.84;55.74;44997.66;5088524;28;20878;-68
2022/07/22 01:26:49;;;;;;;9.63;3.87;;;;;;;-143.84;55.78;45009.09;5088951;28;20432;-68
2022/07/22 01:29:16;;;;;;;7.90;3.50;;;;;;;-143.84;55.37;44988.13;5101258;28;20482;-68
2022/07/22 01:31:44;;;;;;;3.73;3.33;;;;;;;-143.84;54.43;45010.97;5108908;28;20511;-68
2022/07/22 01:34:11;;;;;;;10.03;3.80;;;;;;;-143.84;53.31;45022.41;5109346;28;20487;-68
2022/07/22 01:36:38;;;;;;;11.07;3.73;;;;;;;-143.84;52.07;44988.13;5109379;28;20500;-68
2022/07/22 01:39:07;;;;;;;4.00;3.20;;;;;;;-143.84;51.14;45028.13;5109127;28;20678;-68
2022/07/22 01:41:34;;;;;;;4.50;3.27;;;;;;;-143.84;51.25;45003.38;5109159;28;20451;-68
2022/07/22 01:44:01;;;;;;;17.33;3.53;;;;;;;-143.84;50.84;44991.94;5109207;28;20496;-68
2022/07/22 01:46:28;;;;;;;8.33;3.60;;;;;;;-143.84;50.36;45014.78;5109195;28;20438;-68
2022/07/22 01:48:55;;;;;;;4.27;3.87;;;;;;;-143.84;49.89;45010.97;5109095;28;20435;-68
2022/07/22 01:51:22;;;;;;;3.80;3.43;;;;;;;-143.84;49.11;45001.47;5108932;28;20443;-68
2022/07/22 01:53:50;;;;;;;3.97;3.67;;;;;;;-143.84;48.89;45003.38;5108763;28;20516;-68
2022/07/22 01:56:18;;;;;;;4.30;3.20;;;;;;;-143.84;49.10;45014.78;5108206;28;20575;-68
2022/07/22 01:58:46;;;;;;;4.07;3.47;;;;;;;-143.84;49.10;45014.78;5108495;28;20443;-68
2022/07/22 02:01:13;;;;;;;17.70;3.70;;;;;;;-143.84;49.67;45018.59;5108782;28;20912;-68
2022/07/22 02:03:40;;;;;;;4.90;3.70;;;;;;;-143.84;50.16;44984.31;5108900;28;20434;-68
2022/07/22 02:06:08;;;;;;;4.23;3.90;;;;;;;-143.84;51.16;44997.66;5108901;28;21214;-68
2022/07/22 02:08:35;;;;;;;3.87;3.47;;;;;;;-143.84;51.53;45007.19;5108746;28;20496;-68
2022/07/22 02:11:02;;;;;;;6.03;3.70;;;;;;;-143.84;52.33;44999.56;5108663;28;20439;-68
2022/07/22 02:13:30;;;;;;;4.13;3.73;;;;;;;-143.84;51.96;44976.72;5108616;28;20479;-68
2022/07/22 02:15:57;;;;;;;4.93;3.93;;;;;;;-143.84;52.27;45012.88;5109156;28;20443;-68
2022/07/22 02:18:25;;;;;;;8.73;4.10;;;;;;;-143.84;51.81;44980.53;5109162;28;20501;-68
2022/07/22 02:20:52;;;;;;;3.63;3.33;;;;;;;-143.84;51.76;44984.31;5108993;28;20508;-68
2022/07/22 02:23:20;;;;;;;8.30;3.90;;;;;;;-143.84;51.66;45009.09;5108679;28;20431;-68
2022/07/22 02:25:48;;;;;;;7.17;3.77;;;;;;;-143.84;51.52;45010.97;5108635;28;20983;-68
2022/07/22 02:28:15;;;;;;;9.43;4.23;;;;;;;-143.84;51.96;45020.50;5111675;28;20493;-68
2022/07/22 02:30:43;;;;;;;5.80;3.80;;;;;;;-143.84;52.04;44995.75;5112302;28;20443;-68
2022/07/22 02:33:11;;;;;;;5.27;3.53;;;;;;;-143.84;52.68;44997.66;5112415;28;20479;-68
2022/07/22 02:35:38;;;;;;;9.90;4.33;;;;;;;-143.84;52.58;45005.28;5112396;28;20430;-68
2022/07/22 02:38:06;;;;;;;6.40;3.67;;;;;;;-143.84;52.98;44993.84;5112246;28;20545;-68
2022/07/22 02:40:33;;;;;;;6.87;4.10;;;;;;;-143.84;52.69;45001.47;5112158;28;20439;-68
2022/07/22 02:43:00;;;;;;;7.90;4.20;;;;;;;-143.84;53.37;44999.56;5112182;28;20492;-68
2022/07/22 02:45:27;;;;;;;14.37;5.03;;;;;;;-143.84;53.27;45012.88;5112000;28;20936;-68
2022/07/22 02:47:56;;;;;;;5.47;3.70;;;;;;;-143.84;53.13;44999.56;5112255;28;20443;-68
2022/07/22 02:50:24;;;;;;;5.67;3.73;;;;;;;-143.84;53.63;45001.47;5112117;28;20451;-68
2022/07/22 02:52:51;;;;;;;6.20;4.17;;;;;;;-143.84;53.98;45009.09;5111985;28;20490;-68
2022/07/22 02:55:19;;;;;;;8.77;5.07;;;;;;;-143.84;54.17;44980.53;5111754;28;20500;-68
2022/07/22 02:57:47;;;;;;;5.53;4.60;;;;;;;-143.84;54.38;44997.66;5111855;28;20447;-68
2022/07/22 03:00:15;;;;;;;5.53;4.93;;;;;;;-143.84;54.32;45016.69;5111624;28;20484;-68
2022/07/22 03:02:43;;;;;;;13.33;6.80;;;;;;;-143.84;54.30;44990.03;5093670;28;20450;-67
2022/07/22 03:05:12;;;;;;;8.83;5.77;;;;;;;-143.84;54.15;45012.88;5111730;28;20491;-68
2022/07/22 03:07:39;;;;;;;6.70;4.30;;;;;;;-143.84;54.08;45026.22;5112131;28;20443;-68
2022/07/22 03:10:08;;;;;;;9.13;4.53;;;;;;;-143.84;53.92;44991.94;5111628;28;20435;-68
2022/07/22 03:12:35;;;;;;;7.90;4.33;;;;;;;-143.84;53.73;45005.28;5111377;28;20443;-68
2022/07/22 03:15:02;;;;;;;8.37;3.80;;;;;;;-143.84;53.22;45026.22;5112395;28;20450;-72
2022/07/22 03:17:29;;;;;;;5.43;4.63;;;;;;;-143.84;53.17;45010.97;5112676;28;20442;-73
2022/07/22 03:19:56;;;;;;;7.00;4.40;;;;;;;-143.84;53.07;45009.09;5112447;28;20423;-72
2022/07/22 03:22:25;;;;;;;7.57;3.93;;;;;;;-143.84;53.04;45018.59;5112601;28;20439;-72
2022/07/22 03:24:52;;;;;;;10.67;4.10;;;;;;;-143.84;52.42;45005.28;5112675;28;20516;-72
2022/07/22 03:27:19;;;;;;;5.57;4.10;;;;;;;-143.84;52.89;44971.00;5095112;28;20985;-72
2022/07/22 03:29:47;;;;;;;12.90;4.90;;;;;;;-143.84;52.45;44991.94;5113106;28;20482;-72
2022/07/22 03:32:14;;;;;;;6.30;4.47;;;;;;;-143.84;52.51;45005.28;5113224;28;20536;-72
2022/07/22 03:34:41;;;;;;;8.70;4.60;;;;;;;-143.84;52.17;44984.31;5113102;28;20486;-72
2022/07/22 03:37:09;;;;;;;7.73;4.80;;;;;;;-143.84;52.00;44990.03;5112742;28;20442;-72
2022/07/22 03:39:37;;;;;;;9.00;3.97;;;;;;;-143.84;51.37;44995.75;5112674;28;20439;-71
2022/07/22 03:42:05;;;;;;;11.23;3.67;;;;;;;-143.84;49.93;44972.91;5112962;28;20439;-71
2022/07/22 03:44:32;;;;;;;10.70;4.00;;;;;;;-143.84;48.82;44959.56;5113525;28;20423;-71
2022/07/22 03:47:00;;;;;;;7.00;3.90;;;;;;;-143.84;47.52;44965.28;5113640;28;20419;-71
2022/07/22 03:49:29;;;;;;;11.27;4.23;;;;;;;-143.84;46.69;44984.31;5112910;28;20439;-71
2022/07/22 03:51:58;;;;;;;6.73;3.60;;;;;;;-143.84;45.68;44976.72;5113214;28;20481;-71
2022/07/22 03:54:25;;;;;;;4.20;3.67;;;;;;;-143.84;43.82;44959.56;5110917;28;20475;-68
2022/07/22 03:56:54;;;;;;;12.37;3.97;;;;;;;-143.84;42.47;44959.56;5110642;28;20442;-68
2022/07/22 03:59:21;;;;;;;12.60;3.67;;;;;;;-143.84;41.26;44967.19;5110990;28;20929;-68
2022/07/22 04:01:48;;;;;;;11.40;3.60;;;;;;;-143.84;40.13;44908.16;5111778;28;20439;-71
2022/07/22 04:04:15;;;;;;;4.50;3.90;;;;;;;-143.84;39.58;44953.88;5112706;28;20427;-72
2022/07/22 04:06:43;;;;;;;4.50;4.10;;;;;;;-143.84;38.72;44896.75;5112828;28;20817;-72
2022/07/22 04:09:10;;;;;;;7.10;3.70;;;;;;;-143.84;38.15;44919.59;5112765;28;20818;-72
2022/07/22 04:11:37;;;;;;;8.40;3.60;;;;;;;-143.84;37.71;44908.16;5112334;28;20423;-72
2022/07/22 04:14:05;;;;;;;6.50;3.80;;;;;;;-143.84;37.09;44906.25;5112001;28;20479;-72
2022/07/22 04:16:33;;;;;;;13.43;4.00;;;;;;;-143.84;36.96;44908.16;5112265;28;20439;-72
2022/07/22 04:19:00;;;;;;;3.77;3.47;;;;;;;-143.84;36.49;44877.69;5112048;28;21286;-72
2022/07/22 04:21:27;;;;;;;9.70;3.40;;;;;;;-143.84;36.35;44894.84;5111688;28;20488;-72
2022/07/22 04:23:54;;;;;;;8.10;4.13;;;;;;;-143.84;36.05;44887.22;5112118;28;20435;-72
2022/07/22 04:26:21;;;;;;;6.17;3.90;;;;;;;-143.84;36.11;44889.13;5111578;28;20433;-72
2022/07/22 04:28:49;;;;;;;8.67;4.20;;;;;;;-143.84;36.10;44891.03;5111217;28;20535;-72
2022/07/22 04:31:18;;;;;;;15.23;4.00;;;;;;;-143.84;36.41;44904.34;5111564;28;20504;-72
2022/07/22 04:33:45;;;;;;;7.67;3.50;;;;;;;-143.84;36.04;44879.59;5111702;28;20488;-72
2022/07/22 04:36:13;;;;;;;7.63;3.33;;;;;;;-143.84;36.11;44883.41;5111248;28;20478;-72
2022/07/22 04:38:41;;;;;;;5.70;3.20;;;;;;;-143.84;35.77;44887.22;5111098;28;20438;-72
2022/07/22 04:41:08;;;;;;;3.60;3.30;;;;;;;-143.84;35.93;44898.66;5110874;28;20431;-72
2022/07/22 04:43:35;;;;;;;5.57;3.10;;;;;;;-143.84;35.47;44898.66;5111380;28;20508;-72
2022/07/22 04:46:03;;;;;;;5.33;2.93;;;;;;;-143.84;35.09;44879.59;5111149;28;20439;-72
2022/07/22 04:48:31;;;;;;;7.13;3.43;;;;;;;-143.84;35.05;44873.88;5111364;28;20435;-72
2022/07/22 04:51:00;;;;;;;9.50;3.47;;;;;;;-143.84;35.11;44870.09;5110579;28;20833;-72
2022/07/22 04:53:27;;;;;;;10.23;3.73;;;;;;;-143.84;34.96;44881.50;5110561;28;21213;-72
2022/07/22 04:55:54;;;;;;;4.80;3.10;;;;;;;-143.84;34.58;44856.75;5110961;28;20496;-72
2022/07/22 04:58:22;;;;;;;3.40;3.10;;;;;;;-143.84;34.05;44870.09;5110952;28;20502;-72
2022/07/22 05:00:50;;;;;;;4.57;2.90;;;;;;;-143.84;34.51;44868.19;5110973;28;20920;-72
2022/07/22 05:03:18;;;;;;;5.37;3.70;;;;;;;-143.84;34.37;44866.28;5110571;28;20454;-72
2022/07/22 05:05:46;;;;;;;8.33;3.40;;;;;;;-143.84;33.97;44830.09;5110515;28;20442;-72
2022/07/22 05:08:14;;;;;;;5.10;3.60;;;;;;;-143.84;33.80;44894.84;5092251;28;21120;-72
2022/07/22 05:10:41;;;;;;;12.60;3.50;;;;;;;-143.84;32.99;44845.31;5110015;28;20443;-72
2022/07/22 05:13:08;;;;;;;3.43;2.70;;;;;;;-143.84;33.98;44822.47;5110026;28;20431;-72
2022/07/22 05:15:35;;;;;;;3.10;2.80;;;;;;;-143.84;33.95;44883.41;5110070;28;20447;-72
2022/07/22 05:18:02;;;;;;;2.60;2.40;;;;;;;-143.84;33.32;44833.91;5110240;28;20853;-72
2022/07/22 05:20:29;;;;;;;13.03;3.33;;;;;;;-143.84;33.11;44851.03;5109823;28;20503;-72
2022/07/22 05:22:58;;;;;;;6.40;3.20;;;;;;;-143.84;33.00;44847.22;5109622;28;20442;-72
2022/07/22 05:25:25;;;;;;;7.77;3.60;;;;;;;-143.84;33.54;44830.09;5110035;28;20470;-72
2022/07/22 05:27:54;;;;;;;7.50;3.77;;;;;;;-143.84;33.80;44856.75;5109015;28;20975;-72
2022/07/22 05:30:22;;;;;;;6.27;3.17;;;;;;;-143.84;33.28;44847.22;5109669;28;20920;-72
2022/07/22 05:32:49;;;;;;;6.80;2.90;;;;;;;-143.84;32.72;44832.00;5109383;28;20439;-72
2022/07/22 05:35:16;;;;;;;15.00;3.20;;;;;;;-143.84;31.67;44849.13;5109916;28;20482;-72
2022/07/22 05:37:43;;;;;;;5.40;2.40;;;;;;;-143.84;30.64;44858.66;5110290;28;20483;-72
2022/07/22 05:40:13;;;;;;;3.83;2.27;;;;;;;-143.84;30.53;44833.91;5110071;28;21013;-72
2022/07/22 05:42:40;;;;;;;6.90;2.10;;;;;;;-143.84;29.71;44841.53;5109984;28;20435;-72
2022/07/22 05:45:08;;;;;;;12.93;2.43;;;;;;;-143.84;29.47;44824.38;5109942;28;20451;-72
2022/07/22 05:47:35;;;;;;;3.30;2.10;;;;;;;-143.84;29.73;44822.47;5109851;28;20439;-72
2022/07/22 05:50:02;;;;;;;10.67;2.30;;;;;;;-143.84;28.50;44841.53;5109939;28;20438;-72
2022/07/22 05:52:29;;;;;;;9.10;2.50;;;;;;;-143.84;28.73;44824.38;5109819;28;20439;-72
2022/07/22 05:54:56;;;;;;;3.23;2.40;;;;;;;-143.84;28.53;44826.28;5109615;28;20466;-72
2022/07/22 05:57:25;;;;;;;5.60;2.80;;;;;;;-143.84;28.28;44805.34;5110171;28;20431;-72
2022/07/22 05:59:52;;;;;;;4.10;2.53;;;;;;;-143.84;27.71;44830.09;5109899;28;20492;-72
2022/07/22 06:02:19;;;;;;;9.63;2.33;;;;;;;-143.84;28.39;44824.38;5111802;28;20499;-72
2022/07/22 06:04:46;;;;;;;8.93;2.53;;;;;;;-143.84;28.01;44839.63;5113837;28;20438;-72
2022/07/22 06:07:13;;;;;;;13.23;2.43;;;;;;;-143.84;27.54;44797.72;5113764;28;20470;-72
2022/07/22 06:09:41;;;;;;;3.40;2.00;;;;;;;-143.84;27.66;44790.13;5113478;28;20435;-72
2022/07/22 06:12:08;;;;;;;6.13;2.20;;;;;;;-143.84;27.39;44790.13;5113708;28;20439;-72
2022/07/22 06:14:37;;;;;;;11.50;2.50;;;;;;;-143.84;27.28;44818.66;5113577;28;20489;-72
2022/07/22 06:17:04;;;;;;;4.33;2.20;;;;;;;-143.84;27.15;44771.06;5113835;28;20530;-72
2022/07/22 06:19:32;;;;;;;10.13;2.40;;;;;;;-143.84;26.97;44797.72;5113843;28;20861;-72
2022/07/22 06:21:59;;;;;;;4.57;2.20;;;;;;;-143.84;27.20;44771.06;5113250;28;20438;-72
2022/07/22 06:24:26;;;;;;;6.80;2.70;;;;;;;-143.84;28.02;44755.84;5113534;28;20530;-72
2022/07/22 06:26:54;;;;;;;18.47;2.70;;;;;;;-143.84;27.48;44746.31;5113520;28;20500;-72
2022/07/22 06:29:21;;;;;;;4.17;2.30;;;;;;;-143.84;26.65;44792.00;5113409;28;20486;-72
2022/07/22 06:31:50;;;;;;;9.97;2.00;;;;;;;-143.84;26.96;44769.16;5113789;28;20434;-72
2022/07/22 06:34:17;;;;;;;6.20;2.37;;;;;;;-143.84;27.10;44765.34;5113512;28;20475;-72
2022/07/22 06:36:44;;;;;;;8.23;2.17;;;;;;;-143.84;26.05;44748.22;5113379;28;20487;-72
2022/07/22 06:39:11;;;;;;;7.67;1.70;;;;;;;-143.84;26.64;44738.69;5113802;28;20431;-72
2022/07/22 06:41:38;;;;;;;3.10;1.90;;;;;;;-143.84;25.82;44746.31;5113429;28;20434;-72
2022/07/22 06:44:06;;;;;;;6.33;2.27;;;;;;;-143.84;26.08;44753.94;5113632;28;20466;-72
2022/07/22 06:46:33;;;;;;;3.93;1.50;;;;;;;-143.84;25.94;44753.94;5113546;28;20434;-72
2022/07/22 06:49:02;;;;;;;3.20;2.27;;;;;;;-143.84;25.44;44729.19;5113114;28;20450;-72
2022/07/22 06:51:29;;;;;;;2.30;1.80;;;;;;;-143.84;26.59;44750.13;5113132;28;20504;-72
2022/07/22 06:53:57;;;;;;;12.33;2.47;;;;;;;-143.84;26.73;44689.19;5113105;28;20498;-72
2022/07/22 06:56:24;;;;;;;3.50;1.97;;;;;;;-143.84;25.84;44753.94;5113145;28;20492;-72
2022/07/22 06:58:51;;;;;;;6.73;1.77;;;;;;;-143.84;25.00;44723.47;5113285;28;20443;-72
2022/07/22 07:01:18;;;;;;;7.73;1.80;;;;;;;-143.84;25.63;44771.06;5113149;28;20439;-72
2022/07/22 07:03:45;;;;;;;5.00;2.00;;;;;;;-143.84;26.05;44738.69;5112275;28;20434;-72
2022/07/22 07:06:14;;;;;;;3.67;2.07;;;;;;;-143.84;25.17;44725.38;5112483;28;20940;-72
2022/07/22 07:08:42;;;;;;;5.83;1.57;;;;;;;-143.84;25.49;44683.50;5113052;28;20467;-72
2022/07/22 07:11:09;;;;;;;2.60;1.80;;;;;;;-143.84;24.75;44740.59;5112328;28;20862;-72
2022/07/22 07:13:36;;;;;;;3.80;1.70;;;;;;;-143.84;25.15;44744.41;5111673;28;20492;-74
2022/07/22 07:16:03;;;;;;;10.93;1.80;;;;;;;-143.84;25.59;44742.50;5111833;28;20971;-74
2022/07/22 07:18:31;;;;;;;11.80;2.00;;;;;;;-143.84;25.39;44717.75;5111525;28;20456;-74
2022/07/22 07:20:58;;;;;;;3.70;1.63;;;;;;;-143.84;25.13;44715.84;5111414;28;20446;-74
2022/07/22 07:23:26;;;;;;;7.50;2.00;;;;;;;-143.84;25.77;44740.59;5111558;28;20439;-74
2022/07/22 07:25:53;;;;;;;5.07;2.17;;;;;;;-143.84;25.46;44725.38;5110920;28;20458;-74
2022/07/22 07:28:21;;;;;;;7.73;1.50;;;;;;;-143.84;25.26;44683.50;5111192;28;20524;-74
2022/07/22 07:30:49;;;;;;;3.67;1.40;;;;;;;-143.84;25.22;44673.97;5111457;28;20435;-74
2022/07/22 07:33:16;;;;;;;2.40;1.60;;;;;;;-143.84;24.82;44717.75;5111192;28;20496;-73
2022/07/22 07:35:43;;;;;;;5.57;1.97;;;;;;;-143.84;25.24;44677.78;5111176;28;20486;-74
2022/07/22 07:38:11;;;;;;;10.20;2.07;;;;;;;-143.84;24.54;44687.28;5110919;28;20434;-74
2022/07/22 07:40:39;;;;;;;3.97;1.63;;;;;;;-143.84;24.62;44685.38;5110779;28;20435;-74
2022/07/22 07:43:06;;;;;;;8.37;1.40;;;;;;;-143.84;24.52;44666.34;5110892;28;20443;-74
2022/07/22 07:45:33;;;;;;;6.60;1.60;;;;;;;-143.84;24.44;44687.28;5111122;28;20443;-74
2022/07/22 07:48:02;;;;;;;4.40;1.50;;;;;;;-143.84;23.49;44673.97;5111202;28;20502;-74
2022/07/22 07:50:29;;;;;;;9.43;1.90;;;;;;;-143.84;24.36;44658.75;5110744;28;20443;-74
2022/07/22 07:52:57;;;;;;;2.20;1.73;;;;;;;-143.84;24.12;44683.50;5110928;28;20423;-74
2022/07/22 07:55:24;;;;;;;2.80;1.43;;;;;;;-143.84;24.09;44679.69;5110755;28;20486;-74
2022/07/22 07:57:54;;;;;;;1.87;1.40;;;;;;;-143.84;24.67;44651.13;5110819;28;20439;-74
2022/07/22 08:00:23;;;;;;;4.70;1.73;;;;;;;-143.84;23.78;44681.59;5110801;28;20447;-74
2022/07/22 08:02:51;;;;;;;6.23;1.80;;;;;;;-143.84;23.58;44664.44;5110627;28;20449;-74
2022/07/22 08:05:20;;;;;;;9.60;1.70;;;;;;;-143.84;25.22;44679.69;5110593;28;20439;-73
2022/07/22 08:07:47;;;;;;;3.73;1.60;;;;;;;-143.84;24.01;44666.34;5110744;28;20436;-73
2022/07/22 08:10:15;;;;;;;11.67;1.50;;;;;;;-143.84;25.00;44689.19;5110913;28;20504;-74
2022/07/22 08:12:42;;;;;;;2.27;1.57;;;;;;;-143.84;25.06;44675.88;5110642;28;20446;-74
2022/07/22 08:15:11;;;;;;;8.10;2.30;;;;;;;-143.84;25.06;44698.72;5110320;28;20830;-74
2022/07/22 08:17:38;;;;;;;13.93;1.53;;;;;;;-143.84;25.20;44685.38;5110233;28;20516;-73
2022/07/22 08:20:07;;;;;;;10.70;1.77;;;;;;;-143.84;24.21;44672.06;5110231;28;20442;-74
2022/07/22 08:22:35;;;;;;;2.50;1.37;;;;;;;-143.84;25.05;44679.69;5110341;28;20948;-74
2022/07/22 08:25:02;;;;;;;8.33;1.70;;;;;;;-143.84;25.33;44679.69;5109538;28;20956;-73
2022/07/22 08:27:29;;;;;;;5.43;1.93;;;;;;;-143.84;25.43;44708.25;5110152;28;20944;-73
2022/07/22 08:29:56;;;;;;;3.73;1.07;;;;;;;-143.84;25.17;44679.69;5109984;28;20486;-73
2022/07/22 08:32:25;;;;;;;3.10;1.30;;;;;;;-143.84;24.80;44708.25;5110022;28;20427;-74
2022/07/22 08:34:52;;;;;;;6.27;1.30;;;;;;;-143.84;25.31;44662.53;5110018;28;20466;-73
2022/07/22 08:37:19;;;;;;;7.77;1.20;;;;;;;-143.84;25.41;44715.84;5110033;28;20492;-73
2022/07/22 08:39:46;;;;;;;9.53;1.80;;;;;;;-143.84;24.78;44679.69;5109983;28;20434;-74
2022/07/22 08:42:14;;;;;;;2.73;1.53;;;;;;;-143.84;24.48;44691.09;5109875;28;20450;-74
2022/07/22 08:44:42;;;;;;;3.50;1.23;;;;;;;-143.84;24.78;44704.44;5109688;28;20443;-74
2022/07/22 08:47:09;;;;;;;2.33;1.27;;;;;;;-143.84;24.17;44679.69;5109322;28;20438;-74
2022/07/22 08:49:39;;;;;;;3.77;1.20;;;;;;;-143.84;25.09;44702.53;5109489;28;21268;-74
2022/07/22 08:52:07;;;;;;;3.23;1.40;;;;;;;-143.84;25.23;44681.59;5109546;28;20979;-73
2022/07/22 08:54:34;;;;;;;5.83;1.20;;;;;;;-143.84;24.89;44658.75;5109664;28;21266;-73
2022/07/22 08:57:01;;;;;;;2.70;1.00;;;;;;;-143.84;24.55;44708.25;5109571;28;20999;-74
2022/07/22 08:59:28;;;;;;;6.80;1.50;;;;;;;-143.84;25.12;44694.91;5109750;28;20444;-73
2022/07/22 09:02:07;;;;;;;4.63;1.40;;;;;;;-143.84;24.97;44683.50;5109505;28;20468;-74
2022/07/22 09:04:54;;;;;;;2.00;1.53;;;;;;;-143.84;24.95;44702.53;5109639;28;20443;-73
2022/07/22 09:07:29;;;;;;;3.10;1.63;;;;;;;-143.84;25.05;44691.09;5109374;28;20451;-74
2022/07/22 09:09:57;;;;;;;4.27;1.80;;;;;;;-143.84;25.50;44704.44;5109527;28;20439;-73
2022/07/22 09:12:27;;;;;;;2.33;1.60;;;;;;;-143.84;25.61;44710.16;5109613;28;20470;-70
2022/07/22 09:14:57;;;;;;;2.20;1.50;;;;;;;-143.84;24.66;44660.63;5109789;28;20513;-70
2022/07/22 09:17:29;;;;;;;4.03;1.60;;;;;;;-143.84;24.71;44746.31;5109530;28;20510;-69
2022/07/22 09:20:00;;;;;;;3.57;1.77;;;;;;;-143.84;24.43;44687.28;5109302;28;20508;-69
2022/07/22 09:22:34;;;;;;;2.47;1.87;;;;;;;;;;5109291;28;20439;-70
2022/07/22 09:25:18;;;;;;;2.50;1.53;;;;;;;-143.84;24.77;44687.28;5109018;28;20431;-69
2022/07/22 09:27:46;;;;;;;5.43;1.70;;;;;;;-143.84;25.11;44675.88;5109387;28;20500;-70
2022/07/22 09:30:15;;;;;;;3.50;1.60;;;;;;;-143.84;24.97;44668.25;5109024;28;20447;-70
2022/07/22 09:32:43;;;;;;;6.93;1.77;;;;;;;-143.84;25.42;44670.16;5109125;28;20431;-69
2022/07/22 09:35:13;;;;;;;7.43;1.83;;;;;;;-143.84;24.50;44683.50;5109673;28;20527;-69
2022/07/22 09:37:52;;;;;;;2.33;1.53;;;;;;;-143.84;25.53;44683.50;5115598;28;20964;-70
2022/07/22 09:40:21;;;;;;;4.00;1.70;;;;;;;-143.84;26.04;44670.16;5115419;28;20442;-69
2022/07/22 09:42:51;;;;;;;5.80;1.37;;;;;;;-143.84;25.19;44698.72;5115323;28;20438;-69
2022/07/22 09:45:20;;;;;;;1.30;1.20;;;;;;;-143.84;24.67;44653.03;5115655;28;20439;-69
2022/07/22 09:47:48;;;;;;;1.93;1.37;;;;;;;-143.84;25.49;44694.91;5116277;28;20430;-69
2022/07/22 09:50:19;;;;;;;1.50;1.23;;;;;;;-143.84;25.98;44641.59;5116490;28;20434;-69
2022/07/22 09:52:47;;;;;;;1.70;1.20;;;;;;;-143.84;25.71;44660.63;5115777;28;20443;-69
2022/07/22 09:55:16;;;;;;;2.17;1.03;;;;;;;-143.84;26.24;44668.25;5115638;28;20521;-69
2022/07/22 09:57:43;;;;;;;9.33;1.63;;;;;;;-143.84;25.66;44651.13;5115595;28;20533;-70
2022/07/22 10:00:12;;;;;;;4.80;1.77;;;;;;;-143.84;25.05;44668.25;5115703;28;21012;-70
2022/07/22 10:02:45;;;;;;;4.80;1.77;;;;;;;-143.84;25.23;44694.91;5115873;28;20529;-69
2022/07/22 10:05:14;;;;;;;3.47;1.20;;;;;;;-143.84;26.06;44694.91;5115796;28;20940;-69
2022/07/22 10:07:45;;;;;;;13.83;1.40;;;;;;;-143.84;24.84;44694.91;5115648;28;20503;-69
2022/07/22 10:10:14;;;;;;;3.33;2.87;;;;;;;-143.84;28.51;44691.09;5115785;28;21237;-69
2022/07/22 10:12:42;;;;;;;8.83;2.97;;;;;;;-143.84;29.10;44685.38;5115580;28;20439;-69
2022/07/22 10:15:10;;;;;;;3.93;1.80;;;;;;;-143.84;27.75;44738.69;5115259;28;20474;-69
2022/07/22 10:17:38;;;;;;;5.70;1.90;;;;;;;-143.84;27.63;44757.75;5115656;28;20439;-69
2022/07/22 10:20:07;;;;;;;5.20;2.17;;;;;;;-143.84;28.16;44748.22;5115433;28;20442;-69
2022/07/22 10:22:54;;;;;;;19.20;4.63;;;;;;;-143.84;31.03;44710.16;5115568;28;20435;-69
2022/07/22 10:25:23;;;;;;;12.50;3.23;;;;;;;-143.84;30.50;44717.75;5115678;28;20450;-69
2022/07/22 10:27:52;;;;;;;6.10;3.20;;;;;;;-143.84;31.86;44729.19;5114952;28;20457;-70
2022/07/22 10:30:22;;;;;;;8.50;3.10;;;;;;;-143.84;31.06;44786.31;5114782;28;20434;-69
2022/07/22 10:33:05;;;;;;;4.77;3.40;;;;;;;-143.84;32.16;44790.13;5115254;28;20434;-69
2022/07/22 10:35:34;;;;;;;25.37;4.63;;;;;;;-143.84;32.43;44811.06;5113113;28;20539;-69
2022/07/22 10:38:05;;;;;;;10.50;3.13;;;;;;;-143.84;31.69;44801.53;5115597;28;20434;-69
2022/07/22 10:40:47;;;;;;;6.60;2.70;;;;;;;-143.84;31.12;44828.19;5115539;28;20442;-69
2022/07/22 10:43:15;;;;;;;4.50;2.60;;;;;;;-143.84;32.97;44809.16;5115377;28;20594;-69
2022/07/22 10:45:46;;;;;;;5.00;2.90;;;;;;;-143.84;33.67;44792.00;5115208;28;20443;-69
2022/07/22 10:48:16;;;;;;;6.83;2.47;;;;;;;-143.84;32.64;44803.44;5112269;28;20522;-69
2022/07/22 10:50:46;;;;;;;7.23;2.63;;;;;;;-143.84;32.63;44738.69;5111919;28;20458;-69
2022/07/22 10:53:18;;;;;;;6.70;2.90;;;;;;;-143.84;32.15;44820.56;5111994;28;20427;-69
2022/07/22 10:56:04;;;;;;;12.00;2.90;;;;;;;-143.84;32.42;44797.72;5111935;28;20479;-69
2022/07/22 10:58:43;;;;;;;13.37;3.17;;;;;;;-143.84;33.25;44803.44;5111836;28;20528;-69
2022/07/22 11:01:12;;;;;;;3.70;2.63;;;;;;;-143.84;32.40;44792.00;5112057;28;20445;-69
2022/07/22 11:03:42;;;;;;;5.57;3.80;;;;;;;-143.84;33.63;44811.06;5111952;28;20439;-69
2022/07/22 11:06:15;;;;;;;7.40;3.10;;;;;;;-143.84;34.20;44822.47;5111883;28;20908;-69
2022/07/22 11:08:45;;;;;;;6.10;2.67;;;;;;;-143.84;34.98;44816.78;5111675;28;20431;-69
2022/07/22 11:11:12;;;;;;;3.87;3.20;;;;;;;-143.84;34.74;44812.97;5111612;28;20447;-69
2022/07/22 11:13:41;;;;;;;7.13;3.23;;;;;;;-143.84;35.89;44822.47;5111983;28;20427;-69
2022/07/22 11:16:17;;;;;;;7.43;3.70;;;;;;;-143.84;36.09;44818.66;5111629;28;20512;-69
2022/07/22 11:18:53;;;;;;;5.53;3.10;;;;;;;-143.84;34.60;44812.97;5111344;28;20974;-69
2022/07/22 11:21:21;;;;;;;8.60;3.23;;;;;;;-143.84;34.73;44811.06;5111665;28;20496;-69